Millerton, Louisiana
Current Conditions -  °F | °C
As of 10:36 AM on Friday 31 Oct 2014 (Local Time) from KMNE Reporting Station
Clear Clear  
Wind Chill: 63°   Ceiling: Unl
Heat Index: 63°   Visibility: 10mi
Dew Point: 48°   Wind: 13mph
Humidity: 59%   Direction: 340°NNW
Pressure: 30.2"   Gusts: 17mph
Location:  32.9128°N, 93.0286°W
Report Text: KMNE 311536Z AUTO 34011G15KT 10SM CLR 17/09 A3020 RMK AO2
Loading
Personal Weather Stations






























Interactive Weather Map
Tropical Storm Tracking
New forecast layout! Learn more

10-Day Weather Forecast

Advertisements
Track Severe Weather on mobile